Time,TemperatureF,DewpointF,PressureIn,WindDirection,WindDirectionDegrees,WindSpeedMPH,WindSpeedGustMPH,Humidity,HourlyPrecipIn,Conditions,Clouds,dailyrainin,SolarRadiationWatts/m^2,SoftwareType,DateUTC
2013-06-24 00:01:00,77.9,64.3,29.93,SW,214,1.4,3.6,63,0.00,SCT,BKN,0.00,0.0,WeatherDisplay:10.37,2013-06-24 04:01:00,
2013-06-24 00:06:00,77.7,64.1,29.93,SSE,163,1.8,4.6,63,0.00,SCT,BKN,0.00,0.0,WeatherDisplay:10.37,2013-06-24 04:06:00,
2013-06-24 00:11:00,77.9,64.3,29.93,South,178,1.6,4.6,63,0.00,SCT,BKN,0.00,0.0,WeatherDisplay:10.37,2013-06-24 04:11:00,
2013-06-24 00:16:00,77.9,63.8,29.93,South,189,1.5,3.5,62,0.00,BKN,,0.00,0.0,WeatherDisplay:10.37,2013-06-24 04:16:00,
2013-06-24 00:21:00,78.1,64.0,29.93,South,179,2.0,5.8,62,0.00,BKN,,0.00,0.0,WeatherDisplay:10.37,2013-06-24 04:21:00,
2013-06-24 00:26:00,77.9,64.3,29.93,SSW,195,1.5,3.5,63,0.00,BKN,,0.00,0.0,WeatherDisplay:10.37,2013-06-24 04:26:00,
2013-06-24 00:31:00,78.1,64.5,29.94,South,182,2.2,5.8,63,0.00,BKN,,0.00,0.0,WeatherDisplay:10.37,2013-06-24 04:31:00,
2013-06-24 00:36:00,77.9,64.3,29.94,SSE,156,0.9,2.3,63,0.00,BKN,,0.00,0.0,WeatherDisplay:10.37,2013-06-24 04:36:00,
2013-06-24 00:41:00,77.9,64.3,29.94,SSW,208,1.8,3.5,63,0.00,BKN,,0.00,0.0,WeatherDisplay:10.37,2013-06-24 04:41:00,
2013-06-24 00:46:00,77.7,64.1,29.94,SSW,195,3.1,5.8,63,0.00,BKN,,0.00,0.0,WeatherDisplay:10.37,2013-06-24 04:46:00,
2013-06-24 00:51:00,77.7,64.6,29.94,SSE,152,2.1,5.8,64,0.00,BKN,,0.00,0.0,WeatherDisplay:10.37,2013-06-24 04:51:00,
2013-06-24 00:56:00,77.7,64.6,29.93,South,171,1.0,3.5,64,0.00,BKN,,0.00,0.0,WeatherDisplay:10.37,2013-06-24 04:56:00,
2013-06-24 01:01:00,77.9,64.7,29.94,SSW,200,1.0,2.3,64,0.00,BKN,,0.00,0.0,WeatherDisplay:10.37,2013-06-24 05:01:00,
2013-06-24 01:06:00,77.5,64.4,29.94,SSE,152,1.3,3.5,64,0.00,BKN,,0.00,0.0,WeatherDisplay:10.37,2013-06-24 05:06:00,
2013-06-24 01:11:00,77.4,64.2,29.94,South,181,1.4,3.5,64,0.00,BKN,,0.00,0.0,WeatherDisplay:10.37,2013-06-24 05:11:00,
2013-06-24 01:16:00,77.4,64.7,29.94,South,191,2.6,4.6,65,0.00,BKN,,0.00,0.0,WeatherDisplay:10.37,2013-06-24 05:16:00,
2013-06-24 01:21:00,77.4,64.7,29.94,SW,217,3.3,8.9,65,0.00,BKN,,0.00,0.0,WeatherDisplay:10.37,2013-06-24 05:21:00,
2013-06-24 01:26:00,77.5,64.8,29.93,South,187,2.1,4.6,65,0.00,BKN,,0.00,0.0,WeatherDisplay:10.37,2013-06-24 05:26:00,
2013-06-24 01:31:00,77.5,64.8,29.93,SSE,165,2.3,5.8,65,0.00,BKN,,0.00,0.0,WeatherDisplay:10.37,2013-06-24 05:31:00,
2013-06-24 01:37:00,77.4,64.7,29.93,South,169,1.8,4.6,65,0.00,BKN,,0.00,0.0,WeatherDisplay:10.37,2013-06-24 05:37:00,
2013-06-24 01:42:00,77.5,64.8,29.93,ESE,121,1.2,2.3,65,0.00,BKN,,0.00,0.0,WeatherDisplay:10.37,2013-06-24 05:42:00,
2013-06-24 01:47:00,77.2,64.9,29.93,SE,142,1.8,5.8,66,0.00,BKN,,0.00,0.0,WeatherDisplay:10.37,2013-06-24 05:47:00,
2013-06-24 01:52:00,77.2,64.9,29.93,SW,220,1.4,4.6,66,0.00,BKN,,0.00,0.0,WeatherDisplay:10.37,2013-06-24 05:52:00,
2013-06-24 01:57:00,77.2,64.9,29.93,South,179,1.3,3.5,66,0.00,BKN,,0.00,0.0,WeatherDisplay:10.37,2013-06-24 05:57:00,
2013-06-24 02:02:00,76.8,64.6,29.93,South,189,1.9,5.8,66,0.00,CLR,BKN,0.00,0.0,WeatherDisplay:10.37,2013-06-24 06:02:00,
2013-06-24 02:07:00,77.0,64.8,29.93,South,178,0.6,2.3,66,0.00,CLR,BKN,0.00,0.0,WeatherDisplay:10.37,2013-06-24 06:07:00,
2013-06-24 02:13:00,77.0,65.2,29.93,South,178,1.2,3.5,67,0.00,CLR,BKN,0.00,0.0,WeatherDisplay:10.37,2013-06-24 06:13:00,
2013-06-24 02:18:00,76.8,65.0,29.93,South,177,0.7,2.3,67,0.00,CLR,BKN,0.00,0.0,WeatherDisplay:10.37,2013-06-24 06:18:00,
2013-06-24 02:23:00,76.8,65.0,29.93,South,184,0.9,3.5,67,0.00,CLR,BKN,0.00,0.0,WeatherDisplay:10.37,2013-06-24 06:23:00,
2013-06-24 02:28:00,76.8,65.0,29.93,South,177,0.9,2.3,67,0.00,CLR,BKN,0.00,0.0,WeatherDisplay:10.37,2013-06-24 06:28:00,
2013-06-24 02:33:00,76.6,64.9,29.93,SE,143,0.5,3.5,67,0.00,CLR,BKN,0.00,0.0,WeatherDisplay:10.37,2013-06-24 06:33:00,
2013-06-24 02:38:00,76.6,65.3,29.93,South,177,0.8,2.3,68,0.00,CLR,BKN,0.00,0.0,WeatherDisplay:10.37,2013-06-24 06:38:00,
2013-06-24 02:44:00,76.5,65.1,29.93,South,181,1.1,3.5,68,0.00,CLR,BKN,0.00,0.0,WeatherDisplay:10.37,2013-06-24 06:44:00,
2013-06-24 02:49:00,76.6,65.3,29.93,SSE,165,0.9,1.1,68,0.00,CLR,BKN,0.00,0.0,WeatherDisplay:10.37,2013-06-24 06:49:00,
2013-06-24 02:54:00,76.6,65.3,29.93,SSW,195,0.2,1.1,68,0.00,CLR,BKN,0.00,0.0,WeatherDisplay:10.37,2013-06-24 06:54:00,
2013-06-24 03:00:00,76.3,64.9,29.93,South,178,0.6,3.5,68,0.00,CLR,BKN,0.00,0.0,WeatherDisplay:10.37,2013-06-24 07:00:00,
2013-06-24 03:05:00,76.3,65.4,29.93,South,176,0.9,3.5,69,0.00,CLR,BKN,0.00,0.0,WeatherDisplay:10.37,2013-06-24 07:05:00,
2013-06-24 03:10:00,76.1,65.2,29.92,South,184,0.8,3.9,69,0.00,CLR,BKN,0.00,0.0,WeatherDisplay:10.37,2013-06-24 07:10:00,
2013-06-24 03:15:00,75.9,65.4,29.92,South,183,1.1,2.3,70,0.00,CLR,BKN,0.00,0.0,WeatherDisplay:10.37,2013-06-24 07:15:00,
2013-06-24 03:20:00,75.9,65.4,29.92,South,184,1.0,2.3,70,0.00,SCT,BKN,0.00,0.0,WeatherDisplay:10.37,2013-06-24 07:20:00,
2013-06-24 03:25:00,75.9,65.4,29.92,South,179,0.6,4.6,70,0.00,SCT,BKN,0.00,0.0,WeatherDisplay:10.37,2013-06-24 07:25:00,
2013-06-24 03:31:00,75.7,65.3,29.93,SSW,192,0.9,1.5,70,0.00,SCT,BKN,0.00,0.0,WeatherDisplay:10.37,2013-06-24 07:31:00,
2013-06-24 03:36:00,75.6,65.1,29.93,SW,234,0.7,2.3,70,0.00,SCT,BKN,0.00,0.0,WeatherDisplay:10.37,2013-06-24 07:36:00,
2013-06-24 03:42:00,75.7,65.7,29.93,South,185,1.9,3.5,71,0.00,SCT,BKN,0.00,0.0,WeatherDisplay:10.37,2013-06-24 07:42:00,
2013-06-24 03:47:00,75.6,65.5,29.93,South,173,0.7,3.5,71,0.00,SCT,BKN,0.00,0.0,WeatherDisplay:10.37,2013-06-24 07:47:00,
2013-06-24 03:52:00,75.7,65.7,29.93,South,187,1.0,3.5,71,0.00,SCT,BKN,0.00,0.0,WeatherDisplay:10.37,2013-06-24 07:52:00,
2013-06-24 03:58:00,75.6,65.5,29.93,South,185,0.9,2.3,71,0.00,SCT,BKN,0.00,0.0,WeatherDisplay:10.37,2013-06-24 07:58:00,
2013-06-24 04:03:00,75.7,65.7,29.93,SSW,213,1.5,3.5,71,0.00,SCT,BKN,0.00,0.0,WeatherDisplay:10.37,2013-06-24 08:03:00,
2013-06-24 04:08:00,75.7,65.3,29.93,SSW,201,0.6,2.3,70,0.00,SCT,BKN,0.00,0.0,WeatherDisplay:10.37,2013-06-24 08:08:00,
2013-06-24 04:14:00,75.7,65.7,29.92,South,190,2.3,3.5,71,0.00,SCT,BKN,0.00,0.0,WeatherDisplay:10.37,2013-06-24 08:14:00,
2013-06-24 04:19:00,75.7,65.7,29.93,South,179,0.8,1.1,71,0.00,BKN,,0.00,0.0,WeatherDisplay:10.37,2013-06-24 08:19:00,
2013-06-24 04:24:00,75.4,65.3,29.92,South,170,0.9,3.5,71,0.00,BKN,,0.00,0.0,WeatherDisplay:10.37,2013-06-24 08:24:00,
2013-06-24 04:29:00,75.6,65.5,29.93,South,178,1.9,4.6,71,0.00,BKN,,0.00,0.0,WeatherDisplay:10.37,2013-06-24 08:29:00,
2013-06-24 04:34:00,75.4,65.7,29.93,South,187,1.8,4.6,72,0.00,BKN,,0.00,0.0,WeatherDisplay:10.37,2013-06-24 08:34:00,
2013-06-24 04:40:00,75.4,65.7,29.93,SSW,195,1.5,3.3,72,0.00,BKN,,0.00,0.0,WeatherDisplay:10.37,2013-06-24 08:40:00,
2013-06-24 04:45:00,75.4,65.7,29.93,SSW,207,1.0,3.5,72,0.00,BKN,,0.00,0.0,WeatherDisplay:10.37,2013-06-24 08:45:00,
2013-06-24 04:51:00,75.4,65.7,29.93,South,183,1.9,3.5,72,0.00,BKN,,0.00,0.0,WeatherDisplay:10.37,2013-06-24 08:51:00,
2013-06-24 04:57:00,75.2,65.6,29.93,SSW,195,2.6,6.9,72,0.00,BKN,,0.00,0.0,WeatherDisplay:10.37,2013-06-24 08:57:00,
2013-06-24 05:02:00,75.4,65.7,29.93,SSE,166,1.4,2.3,72,0.00,BKN,,0.00,0.0,WeatherDisplay:10.37,2013-06-24 09:02:00,
2013-06-24 05:07:00,75.2,65.6,29.93,SSW,205,1.4,2.3,72,0.00,BKN,,0.00,0.0,WeatherDisplay:10.37,2013-06-24 09:07:00,
2013-06-24 05:12:00,75.4,65.7,29.93,South,191,1.2,2.3,72,0.00,BKN,,0.00,0.0,WeatherDisplay:10.37,2013-06-24 09:12:00,
2013-06-24 05:17:00,75.6,65.9,29.93,SSW,195,1.5,2.3,72,0.00,BKN,,0.00,0.0,WeatherDisplay:10.37,2013-06-24 09:17:00,
2013-06-24 05:22:00,75.4,65.7,29.93,SSW,204,2.2,3.5,72,0.00,BKN,,0.00,0.0,WeatherDisplay:10.37,2013-06-24 09:22:00,
2013-06-24 05:27:00,75.7,66.1,29.93,SSW,199,1.5,4.6,72,0.00,BKN,,0.00,0.0,WeatherDisplay:10.37,2013-06-24 09:27:00,
2013-06-24 05:32:00,75.7,65.7,29.93,SW,234,1.8,4.6,71,0.00,BKN,,0.00,0.0,WeatherDisplay:10.37,2013-06-24 09:32:00,
2013-06-24 05:37:00,75.6,65.9,29.93,South,175,1.8,3.5,72,0.00,BKN,,0.00,0.0,WeatherDisplay:10.37,2013-06-24 09:37:00,
2013-06-24 05:42:00,75.6,65.9,29.93,SSW,198,1.6,2.3,72,0.00,BKN,,0.00,0.0,WeatherDisplay:10.37,2013-06-24 09:42:00,
2013-06-24 05:47:00,75.6,65.9,29.93,South,183,2.2,3.5,72,0.00,BKN,,0.00,0.0,WeatherDisplay:10.37,2013-06-24 09:47:00,
2013-06-24 05:52:00,75.4,65.7,29.94,South,184,2.7,3.5,72,0.00,BKN,,0.00,0.0,WeatherDisplay:10.37,2013-06-24 09:52:00,
2013-06-24 05:58:00,75.4,65.7,29.94,SSW,193,2.8,5.8,72,0.00,BKN,,0.00,0.0,WeatherDisplay:10.37,2013-06-24 09:58:00,
2013-06-24 06:04:00,75.4,65.7,29.94,SW,228,1.1,2.3,72,0.00,BKN,,0.00,0.0,WeatherDisplay:10.37,2013-06-24 10:04:00,
2013-06-24 06:09:00,75.4,65.7,29.94,SW,216,2.1,5.8,72,0.00,BKN,,0.00,0.0,WeatherDisplay:10.37,2013-06-24 10:09:00,
2013-06-24 06:14:00,75.4,65.7,29.94,SSW,195,2.8,4.6,72,0.00,BKN,,0.00,0.0,WeatherDisplay:10.37,2013-06-24 10:14:00,
2013-06-24 06:19:00,75.7,66.1,29.94,SSW,210,2.0,4.6,72,0.00,BKN,,0.00,0.0,WeatherDisplay:10.37,2013-06-24 10:19:00,
2013-06-24 06:24:00,75.6,65.9,29.95,SSW,200,1.4,3.5,72,0.00,BKN,,0.00,0.0,WeatherDisplay:10.37,2013-06-24 10:24:00,
2013-06-24 06:29:00,75.4,65.7,29.94,SSE,156,0.7,2.3,72,0.00,BKN,,0.00,0.0,WeatherDisplay:10.37,2013-06-24 10:29:00,
2013-06-24 06:35:00,75.4,66.1,29.95,SSW,198,1.3,2.3,73,0.00,BKN,,0.00,1.6,WeatherDisplay:10.37,2013-06-24 10:35:00,
2013-06-24 06:41:00,75.6,66.3,29.95,SSW,202,1.1,2.3,73,0.00,BKN,,0.00,3.4,WeatherDisplay:10.37,2013-06-24 10:41:00,
2013-06-24 06:46:00,75.7,66.5,29.95,SSE,168,1.0,2.3,73,0.00,BKN,,0.00,6.1,WeatherDisplay:10.37,2013-06-24 10:46:00,
2013-06-24 06:51:00,75.7,66.5,29.95,SSW,195,1.0,2.3,73,0.00,BKN,,0.00,8.6,WeatherDisplay:10.37,2013-06-24 10:51:00,
2013-06-24 06:57:00,75.7,66.5,29.95,SSE,157,1.2,2.3,73,0.00,BKN,,0.00,9.9,WeatherDisplay:10.37,2013-06-24 10:57:00,
2013-06-24 07:02:00,75.7,66.9,29.95,SSW,207,1.3,2.3,74,0.00,BKN,,0.00,11.8,WeatherDisplay:10.37,2013-06-24 11:02:00,
2013-06-24 07:07:00,75.9,66.6,29.95,SW,231,0.8,2.3,73,0.00,BKN,,0.00,15.1,WeatherDisplay:10.37,2013-06-24 11:07:00,
2013-06-24 07:13:00,76.1,66.8,29.95,NW,321,1.5,3.5,73,0.00,BKN,,0.00,21.0,WeatherDisplay:10.37,2013-06-24 11:13:00,
2013-06-24 07:18:00,76.3,67.0,29.95,North,8,1.6,4.6,73,0.00,SCT,BKN,0.00,23.0,WeatherDisplay:10.37,2013-06-24 11:18:00,
2013-06-24 07:24:00,76.3,66.6,29.95,South,176,1.9,3.5,72,0.00,SCT,BKN,0.00,26.5,WeatherDisplay:10.37,2013-06-24 11:24:00,
2013-06-24 07:29:00,76.8,67.1,29.95,SSW,198,1.4,5.8,72,0.00,SCT,BKN,0.00,31.7,WeatherDisplay:10.37,2013-06-24 11:29:00,
2013-06-24 07:34:00,76.5,66.8,29.95,SSW,210,2.6,6.9,72,0.00,SCT,BKN,0.00,34.0,WeatherDisplay:10.37,2013-06-24 11:34:00,
2013-06-24 07:39:00,76.5,66.8,29.95,SSW,207,3.5,3.5,72,0.00,SCT,BKN,0.00,37.2,WeatherDisplay:10.37,2013-06-24 11:39:00,
2013-06-24 07:44:00,76.8,67.1,29.95,West,266,1.5,3.5,72,0.00,SCT,BKN,0.00,40.7,WeatherDisplay:10.37,2013-06-24 11:44:00,
2013-06-24 07:50:00,76.8,67.1,29.95,SW,214,1.8,5.8,72,0.00,SCT,BKN,0.00,47.1,WeatherDisplay:10.37,2013-06-24 11:50:00,
2013-06-24 07:55:00,76.6,66.9,29.95,SSW,201,3.0,4.6,72,0.00,SCT,BKN,0.00,70.0,WeatherDisplay:10.37,2013-06-24 11:55:00,
2013-06-24 08:00:00,76.8,67.1,29.95,WSW,240,1.7,4.6,72,0.00,SCT,BKN,0.00,64.0,WeatherDisplay:10.37,2013-06-24 12:00:00,
2013-06-24 08:05:00,77.0,67.3,29.95,SSW,197,2.7,6.9,72,0.00,SCT,BKN,0.00,146.2,WeatherDisplay:10.37,2013-06-24 12:05:00,
2013-06-24 08:12:00,77.2,67.5,29.95,South,191,2.2,3.5,72,0.00,SCT,BKN,0.00,79.5,WeatherDisplay:10.37,2013-06-24 12:12:00,
2013-06-24 08:17:00,77.2,67.0,29.95,SW,219,1.6,4.6,71,0.00,SCT,BKN,0.00,113.4,WeatherDisplay:10.37,2013-06-24 12:17:00,
2013-06-24 08:23:00,77.4,67.2,29.95,SW,226,1.8,5.8,71,0.00,SCT,BKN,0.00,189.6,WeatherDisplay:10.37,2013-06-24 12:23:00,
2013-06-24 08:28:00,77.9,67.3,29.95,SW,228,1.2,3.5,70,0.00,SCT,BKN,0.00,225.5,WeatherDisplay:10.37,2013-06-24 12:28:00,
2013-06-24 08:33:00,78.1,66.7,29.95,SW,226,2.0,3.5,68,0.00,SCT,BKN,0.00,241.1,WeatherDisplay:10.37,2013-06-24 12:33:00,
2013-06-24 08:38:00,78.4,67.0,29.95,NW,321,3.9,8.1,68,0.00,SCT,BKN,0.00,268.0,WeatherDisplay:10.37,2013-06-24 12:38:00,
2013-06-24 08:44:00,78.3,66.8,29.95,South,182,2.4,4.6,68,0.00,SCT,BKN,0.00,239.1,WeatherDisplay:10.37,2013-06-24 12:44:00,
2013-06-24 08:49:00,78.3,66.8,29.95,SSW,193,2.0,4.6,68,0.00,SCT,BKN,0.00,230.3,WeatherDisplay:10.37,2013-06-24 12:49:00,
2013-06-24 08:54:00,78.4,66.6,29.95,SW,223,3.5,6.9,67,0.00,SCT,BKN,0.00,245.1,WeatherDisplay:10.37,2013-06-24 12:54:00,
2013-06-24 08:59:00,78.6,66.7,29.95,SSE,161,4.4,8.1,67,0.00,SCT,BKN,0.00,253.5,WeatherDisplay:10.37,2013-06-24 12:59:00,
2013-06-24 09:04:00,78.6,66.3,29.95,SE,128,1.7,6.9,66,0.00,BKN,,0.00,240.7,WeatherDisplay:10.37,2013-06-24 13:04:00,
2013-06-24 09:09:00,79.0,66.6,29.95,SSW,197,2.6,5.8,66,0.00,BKN,,0.00,283.8,WeatherDisplay:10.37,2013-06-24 13:09:00,
2013-06-24 09:14:00,79.3,67.0,29.95,SSW,208,1.9,4.6,66,0.00,BKN,,0.00,260.6,WeatherDisplay:10.37,2013-06-24 13:14:00,
2013-06-24 09:19:00,79.0,66.2,29.95,South,181,3.0,8.1,65,0.00,BKN,,0.00,236.8,WeatherDisplay:10.37,2013-06-24 13:19:00,
2013-06-24 09:24:00,79.2,66.4,29.95,SSW,198,1.3,4.6,65,0.00,BKN,,0.00,217.8,WeatherDisplay:10.37,2013-06-24 13:24:00,
2013-06-24 09:30:00,79.0,66.2,29.95,SSW,196,2.9,6.9,65,0.00,BKN,,0.00,223.7,WeatherDisplay:10.37,2013-06-24 13:30:00,
2013-06-24 09:35:00,78.6,65.9,29.95,South,187,2.0,4.6,65,0.00,BKN,,0.00,197.5,WeatherDisplay:10.37,2013-06-24 13:35:00,
2013-06-24 09:40:00,78.6,66.3,29.95,SSW,192,3.1,6.9,66,0.00,BKN,,0.00,182.0,WeatherDisplay:10.37,2013-06-24 13:40:00,
2013-06-24 09:45:00,78.6,66.3,29.95,South,189,1.4,3.5,66,0.00,BKN,,0.00,183.5,WeatherDisplay:10.37,2013-06-24 13:45:00,
2013-06-24 09:50:00,78.6,66.7,29.95,South,191,0.9,2.3,67,0.00,BKN,,0.00,194.8,WeatherDisplay:10.37,2013-06-24 13:50:00,
2013-06-24 09:56:00,78.8,66.9,29.95,South,176,0.7,2.3,67,0.00,BKN,,0.00,226.8,WeatherDisplay:10.37,2013-06-24 13:56:00,
2013-06-24 10:01:00,79.2,67.3,29.95,WNW,296,1.4,3.2,67,0.00,BKN,,0.00,261.3,WeatherDisplay:10.37,2013-06-24 14:01:00,
2013-06-24 10:06:00,78.8,66.5,29.95,South,176,2.4,6.9,66,0.00,BKN,,0.00,299.0,WeatherDisplay:10.37,2013-06-24 14:06:00,
2013-06-24 10:12:00,78.6,66.3,29.95,SSE,168,2.1,3.5,66,0.00,BKN,,0.00,306.3,WeatherDisplay:10.37,2013-06-24 14:12:00,
2013-06-24 10:17:00,78.4,66.6,29.96,SE,135,2.5,3.5,67,0.00,SCT,BKN,0.00,300.6,WeatherDisplay:10.37,2013-06-24 14:17:00,
2013-06-24 10:22:00,78.4,66.6,29.95,SW,230,3.8,6.9,67,0.00,SCT,BKN,0.00,397.2,WeatherDisplay:10.37,2013-06-24 14:22:00,
2013-06-24 10:27:00,79.5,67.6,29.96,SW,216,1.5,2.3,67,0.00,SCT,BKN,0.00,476.3,WeatherDisplay:10.37,2013-06-24 14:27:00,
2013-06-24 10:33:00,79.5,67.2,29.95,SSW,200,2.1,4.4,66,0.00,SCT,BKN,0.00,701.2,WeatherDisplay:10.37,2013-06-24 14:33:00,
2013-06-24 10:38:00,80.4,67.6,29.95,SSE,161,1.6,3.5,65,0.00,SCT,BKN,0.00,452.7,WeatherDisplay:10.37,2013-06-24 14:38:00,
2013-06-24 10:43:00,80.1,67.2,29.95,South,181,3.5,10.4,65,0.00,SCT,BKN,0.00,370.5,WeatherDisplay:10.37,2013-06-24 14:43:00,
2013-06-24 10:48:00,80.2,67.4,29.95,South,182,2.4,4.6,65,0.00,SCT,BKN,0.00,374.5,WeatherDisplay:10.37,2013-06-24 14:48:00,
2013-06-24 10:53:00,80.4,68.5,29.94,South,177,1.4,4.0,67,0.00,SCT,BKN,0.00,373.6,WeatherDisplay:10.37,2013-06-24 14:53:00,
2013-06-24 10:58:00,80.8,67.9,29.94,SSW,200,1.1,3.5,65,0.00,SCT,BKN,0.00,403.0,WeatherDisplay:10.37,2013-06-24 14:58:00,
2013-06-24 11:05:00,80.8,67.5,29.95,SSW,192,1.3,4.6,64,0.00,BKN,,0.00,477.4,WeatherDisplay:10.37,2013-06-24 15:05:00,
2013-06-24 11:11:00,81.9,68.5,29.94,SSW,197,2.0,4.6,64,0.00,BKN,,0.00,888.4,WeatherDisplay:10.37,2013-06-24 15:11:00,
2013-06-24 11:16:00,82.9,69.5,29.94,WNW,285,1.3,5.8,64,0.00,BKN,,0.00,905.8,WeatherDisplay:10.37,2013-06-24 15:16:00,
2013-06-24 11:21:00,83.8,69.0,29.93,South,179,3.2,8.1,61,0.00,BKN,,0.00,894.1,WeatherDisplay:10.37,2013-06-24 15:21:00,
2013-06-24 11:27:00,83.5,68.6,29.93,South,185,4.1,5.8,61,0.00,BKN,,0.00,1012.0,WeatherDisplay:10.37,2013-06-24 15:27:00,
2013-06-24 11:32:00,84.6,69.1,29.93,West,262,1.9,3.5,60,0.00,BKN,,0.00,816.7,WeatherDisplay:10.37,2013-06-24 15:32:00,
2013-06-24 11:37:00,84.6,68.7,29.93,SE,138,5.7,11.5,59,0.00,BKN,,0.00,993.3,WeatherDisplay:10.37,2013-06-24 15:37:00,
2013-06-24 11:43:00,85.1,68.7,29.94,South,181,1.8,3.5,58,0.00,BKN,,0.00,953.0,WeatherDisplay:10.37,2013-06-24 15:43:00,
2013-06-24 11:48:00,85.1,67.6,29.94,SSW,199,3.3,10.1,56,0.00,BKN,,0.00,760.9,WeatherDisplay:10.37,2013-06-24 15:48:00,
2013-06-24 11:53:00,84.9,68.0,29.93,South,180,4.2,6.9,57,0.00,BKN,,0.00,798.8,WeatherDisplay:10.37,2013-06-24 15:53:00,
2013-06-24 11:58:00,85.6,69.2,29.93,SSW,203,2.8,5.8,58,0.00,BKN,,0.00,618.0,WeatherDisplay:10.37,2013-06-24 15:58:00,
2013-06-24 12:03:00,84.7,67.3,29.94,ESE,109,4.3,7.1,56,0.00,BKN,,0.00,716.9,WeatherDisplay:10.37,2013-06-24 16:03:00,
2013-06-24 12:08:00,84.6,68.2,29.94,West,264,2.0,3.5,58,0.00,BKN,,0.00,785.6,WeatherDisplay:10.37,2013-06-24 16:08:00,
2013-06-24 12:13:00,84.9,67.5,29.94,WSW,244,4.4,9.2,56,0.00,BKN,,0.00,763.2,WeatherDisplay:10.37,2013-06-24 16:13:00,
2013-06-24 12:19:00,85.3,67.8,29.95,West,279,6.6,10.4,56,0.00,BKN,,0.00,724.5,WeatherDisplay:10.37,2013-06-24 16:19:00,
2013-06-24 12:24:00,84.7,68.3,29.95,West,276,5.1,10.4,58,0.00,BKN,,0.00,901.7,WeatherDisplay:10.37,2013-06-24 16:24:00,
2013-06-24 12:30:00,84.6,69.6,29.95,NW,326,2.6,9.2,61,0.00,BKN,,0.00,994.3,WeatherDisplay:10.37,2013-06-24 16:30:00,
2013-06-24 12:35:00,85.1,69.7,29.95,SSE,157,2.0,11.5,60,0.00,BKN,,0.00,1095.6,WeatherDisplay:10.37,2013-06-24 16:35:00,
2013-06-24 12:40:00,85.6,69.7,29.95,South,178,2.0,4.6,59,0.00,BKN,,0.00,1182.4,WeatherDisplay:10.37,2013-06-24 16:40:00,
2013-06-24 12:47:00,85.1,67.6,29.95,SSW,204,5.6,11.5,56,0.00,BKN,,0.00,773.6,WeatherDisplay:10.37,2013-06-24 16:47:00,
2013-06-24 12:52:00,83.5,66.6,29.95,SW,236,3.2,4.6,57,0.00,BKN,,0.00,498.6,WeatherDisplay:10.37,2013-06-24 16:52:00,
2013-06-24 12:58:00,83.5,67.6,29.95,West,259,6.9,15.0,59,0.00,BKN,,0.00,457.2,WeatherDisplay:10.37,2013-06-24 16:58:00,
2013-06-24 13:03:00,82.9,67.6,29.95,WSW,254,4.1,9.2,60,0.00,BKN,,0.00,470.6,WeatherDisplay:10.37,2013-06-24 17:03:00,
2013-06-24 13:08:00,82.2,67.4,29.95,West,269,2.6,5.8,61,0.00,BKN,,0.00,476.6,WeatherDisplay:10.37,2013-06-24 17:08:00,
2013-06-24 13:13:00,82.6,68.2,29.95,West,278,4.4,8.1,62,0.00,BKN,,0.00,585.3,WeatherDisplay:10.37,2013-06-24 17:13:00,
2013-06-24 13:20:00,83.8,69.9,29.95,WNW,285,2.2,4.8,63,0.00,BKN,,0.00,899.8,WeatherDisplay:10.37,2013-06-24 17:20:00,
2013-06-24 13:25:00,83.8,68.5,29.95,SW,230,2.0,4.6,60,0.00,BKN,,0.00,500.5,WeatherDisplay:10.37,2013-06-24 17:25:00,
2013-06-24 13:30:00,83.7,68.3,29.95,SSW,203,3.2,9.2,60,0.00,BKN,,0.00,604.5,WeatherDisplay:10.37,2013-06-24 17:30:00,
2013-06-24 13:35:00,83.5,67.1,29.95,South,179,3.8,9.2,58,0.00,BKN,,0.00,535.1,WeatherDisplay:10.37,2013-06-24 17:35:00,
2013-06-24 13:41:00,83.8,68.0,29.95,SW,215,3.7,6.9,59,0.00,BKN,,0.00,876.0,WeatherDisplay:10.37,2013-06-24 17:41:00,
2013-06-24 13:46:00,84.7,68.3,29.94,West,280,4.3,10.2,58,0.00,BKN,,0.00,1287.7,WeatherDisplay:10.37,2013-06-24 17:46:00,
2013-06-24 13:52:00,84.4,67.0,29.95,SW,221,4.3,10.4,56,0.00,BKN,,0.00,541.0,WeatherDisplay:10.37,2013-06-24 17:52:00,
2013-06-24 13:57:00,84.0,67.7,29.95,North,352,4.1,8.1,58,0.00,BKN,,0.00,959.1,WeatherDisplay:10.37,2013-06-24 17:57:00,
2013-06-24 14:02:00,83.8,67.5,29.95,SSW,203,5.8,12.7,58,0.00,SCT,BKN,0.00,583.4,WeatherDisplay:10.37,2013-06-24 18:02:00,
2013-06-24 14:07:00,82.9,66.6,29.93,SE,129,3.6,13.8,58,0.00,SCT,BKN,0.00,1246.1,WeatherDisplay:10.37,2013-06-24 18:07:00,
2013-06-24 14:12:00,83.8,67.5,29.93,SSW,195,3.1,6.9,58,0.00,SCT,BKN,0.00,1124.0,WeatherDisplay:10.37,2013-06-24 18:12:00,
2013-06-24 14:18:00,84.7,67.3,29.93,West,276,3.6,8.1,56,0.00,SCT,BKN,0.00,1045.5,WeatherDisplay:10.37,2013-06-24 18:18:00,
2013-06-24 14:23:00,83.8,66.5,29.93,SSE,165,5.6,8.1,56,0.00,SCT,BKN,0.00,1008.2,WeatherDisplay:10.37,2013-06-24 18:23:00,
2013-06-24 14:29:00,84.0,65.6,29.93,SSE,147,5.7,13.8,54,0.00,SCT,BKN,0.00,1060.1,WeatherDisplay:10.37,2013-06-24 18:29:00,
2013-06-24 14:34:00,83.8,65.4,29.93,SSW,208,5.1,10.4,54,0.00,SCT,BKN,0.00,467.0,WeatherDisplay:10.37,2013-06-24 18:34:00,
2013-06-24 14:39:00,83.5,65.1,29.93,North,0,5.9,13.8,54,0.00,SCT,BKN,0.00,1206.7,WeatherDisplay:10.37,2013-06-24 18:39:00,
2013-06-24 14:45:00,83.1,64.8,29.92,West,269,6.5,15.0,54,0.00,SCT,BKN,0.00,567.4,WeatherDisplay:10.37,2013-06-24 18:45:00,
2013-06-24 14:51:00,83.1,65.3,29.92,SW,215,3.3,12.7,55,0.00,SCT,BKN,0.00,1054.4,WeatherDisplay:10.37,2013-06-24 18:51:00,
2013-06-24 14:56:00,83.5,65.1,29.92,NE,52,7.2,11.5,54,0.00,SCT,BKN,0.00,1068.5,WeatherDisplay:10.37,2013-06-24 18:56:00,
2013-06-24 15:01:00,83.8,65.9,29.91,SW,236,5.6,11.5,55,0.00,SCT,BKN,0.00,966.2,WeatherDisplay:10.37,2013-06-24 19:01:00,
2013-06-24 15:06:00,84.0,66.6,29.91,SSW,192,4.0,6.9,56,0.00,SCT,BKN,0.00,925.2,WeatherDisplay:10.37,2013-06-24 19:06:00,
2013-06-24 15:11:00,83.5,64.5,29.91,WSW,256,5.1,9.2,53,0.00,SCT,BKN,0.00,919.8,WeatherDisplay:10.37,2013-06-24 19:11:00,
2013-06-24 15:17:00,84.4,65.4,29.90,WNW,282,4.5,8.1,53,0.00,SCT,BKN,0.00,909.2,WeatherDisplay:10.37,2013-06-24 19:17:00,
2013-06-24 15:22:00,84.4,64.8,29.90,SW,235,3.4,9.2,52,0.00,SCT,BKN,0.00,898.6,WeatherDisplay:10.37,2013-06-24 19:22:00,
2013-06-24 15:28:00,84.7,65.2,29.91,West,267,6.6,11.5,52,0.00,SCT,BKN,0.00,892.5,WeatherDisplay:10.37,2013-06-24 19:28:00,
2013-06-24 15:33:00,84.6,65.0,29.90,SW,232,4.4,10.4,52,0.00,SCT,BKN,0.00,874.4,WeatherDisplay:10.37,2013-06-24 19:33:00,
2013-06-24 15:38:00,84.9,64.2,29.90,SW,217,4.5,16.1,50,0.00,SCT,BKN,0.00,871.9,WeatherDisplay:10.37,2013-06-24 19:38:00,
2013-06-24 15:43:00,84.7,64.6,29.89,West,272,4.3,10.4,51,0.00,SCT,BKN,0.00,858.4,WeatherDisplay:10.37,2013-06-24 19:43:00,
2013-06-24 15:50:00,84.7,64.0,29.89,West,267,4.9,6.9,50,0.00,SCT,BKN,0.00,845.3,WeatherDisplay:10.37,2013-06-24 19:50:00,
2013-06-24 15:55:00,84.0,63.9,29.89,West,259,3.8,6.9,51,0.00,SCT,BKN,0.00,827.7,WeatherDisplay:10.37,2013-06-24 19:55:00,
2013-06-24 16:01:00,84.4,64.3,29.89,NNW,346,4.2,10.4,51,0.00,SCT,BKN,0.00,819.1,WeatherDisplay:10.37,2013-06-24 20:01:00,
2013-06-24 16:06:00,83.7,64.2,29.88,South,184,5.4,10.4,52,0.00,SCT,BKN,0.00,806.3,WeatherDisplay:10.37,2013-06-24 20:06:00,
2013-06-24 16:11:00,84.0,64.5,29.88,SSW,204,4.5,10.4,52,0.00,SCT,BKN,0.00,794.3,WeatherDisplay:10.37,2013-06-24 20:11:00,
2013-06-24 16:16:00,84.7,64.6,29.87,NW,313,4.6,15.4,51,0.00,SCT,BKN,0.00,779.4,WeatherDisplay:10.37,2013-06-24 20:16:00,
2013-06-24 16:21:00,84.6,64.4,29.88,South,176,3.2,12.7,51,0.00,SCT,BKN,0.00,764.6,WeatherDisplay:10.37,2013-06-24 20:21:00,
2013-06-24 16:27:00,84.0,64.5,29.88,West,259,3.8,6.9,52,0.00,SCT,BKN,0.00,739.5,WeatherDisplay:10.37,2013-06-24 20:27:00,
2013-06-24 16:32:00,84.2,64.7,29.88,SSE,150,4.9,8.1,52,0.00,SCT,BKN,0.00,732.4,WeatherDisplay:10.37,2013-06-24 20:32:00,
2013-06-24 16:37:00,84.0,65.0,29.87,South,188,5.1,8.1,53,0.00,SCT,BKN,0.00,717.4,WeatherDisplay:10.37,2013-06-24 20:37:00,
2013-06-24 16:42:00,84.9,65.3,29.87,WSW,239,2.8,5.8,52,0.00,SCT,BKN,0.00,699.3,WeatherDisplay:10.37,2013-06-24 20:42:00,
2013-06-24 16:47:00,84.7,65.2,29.88,SE,134,4.7,9.2,52,0.00,SCT,BKN,0.00,683.0,WeatherDisplay:10.37,2013-06-24 20:47:00,
2013-06-24 16:53:00,83.7,64.7,29.88,South,189,5.2,9.2,53,0.00,SCT,BKN,0.00,669.3,WeatherDisplay:10.37,2013-06-24 20:53:00,
2013-06-24 16:59:00,84.0,65.0,29.88,WSW,237,4.7,12.7,53,0.00,SCT,BKN,0.00,649.3,WeatherDisplay:10.37,2013-06-24 20:59:00,
2013-06-24 17:04:00,84.0,65.6,29.88,WSW,251,3.4,5.8,54,0.00,SCT,BKN,0.00,630.9,WeatherDisplay:10.37,2013-06-24 21:04:00,
2013-06-24 17:09:00,84.4,65.9,29.88,West,263,3.1,8.1,54,0.00,SCT,BKN,0.00,615.8,WeatherDisplay:10.37,2013-06-24 21:09:00,
2013-06-24 17:14:00,84.0,66.1,29.87,West,266,3.1,6.9,55,0.00,SCT,BKN,0.00,602.4,WeatherDisplay:10.37,2013-06-24 21:14:00,
2013-06-24 17:20:00,83.5,65.1,29.87,SSW,206,4.0,10.4,54,0.00,SCT,BKN,0.00,582.6,WeatherDisplay:10.37,2013-06-24 21:20:00,
2013-06-24 17:25:00,83.7,65.3,29.87,NNE,29,4.6,11.5,54,0.00,SCT,BKN,0.00,559.9,WeatherDisplay:10.37,2013-06-24 21:25:00,
2013-06-24 17:30:00,83.8,65.4,29.87,North,8,4.0,6.9,54,0.00,SCT,BKN,0.00,472.8,WeatherDisplay:10.37,2013-06-24 21:30:00,
2013-06-24 17:35:00,83.5,65.1,29.87,SSW,199,5.4,10.4,54,0.00,SCT,BKN,0.00,491.7,WeatherDisplay:10.37,2013-06-24 21:35:00,
2013-06-24 17:41:00,83.8,65.4,29.87,SW,228,2.2,8.1,54,0.00,SCT,BKN,0.00,331.5,WeatherDisplay:10.37,2013-06-24 21:41:00,
2013-06-24 17:46:00,84.0,65.6,29.87,SSW,204,2.9,10.4,54,0.00,SCT,BKN,0.00,413.3,WeatherDisplay:10.37,2013-06-24 21:46:00,
2013-06-24 17:52:00,82.9,64.6,29.86,South,181,4.3,8.1,54,0.00,SCT,BKN,0.00,111.8,WeatherDisplay:10.37,2013-06-24 21:52:00,
2013-06-24 17:57:00,82.6,64.3,29.87,South,182,5.3,9.2,54,0.00,SCT,BKN,0.00,127.8,WeatherDisplay:10.37,2013-06-24 21:57:00,
2013-06-24 18:02:00,82.8,63.9,29.85,South,186,2.7,9.2,53,0.00,SCT,BKN,0.00,107.8,WeatherDisplay:10.37,2013-06-24 22:02:00,
2013-06-24 18:07:00,83.3,64.9,29.85,West,273,2.6,5.8,54,0.00,SCT,BKN,0.00,105.8,WeatherDisplay:10.37,2013-06-24 22:07:00,
2013-06-24 18:13:00,83.3,63.8,29.85,WSW,241,3.6,5.8,52,0.00,SCT,BKN,0.00,205.0,WeatherDisplay:10.37,2013-06-24 22:13:00,
2013-06-24 18:18:00,82.9,63.5,29.85,WSW,245,4.3,8.1,52,0.00,SCT,BKN,0.00,88.8,WeatherDisplay:10.37,2013-06-24 22:18:00,
2013-06-24 18:23:00,82.6,63.2,29.85,SSW,197,5.0,7.1,52,0.00,SCT,BKN,0.00,83.7,WeatherDisplay:10.37,2013-06-24 22:23:00,
2013-06-24 18:28:00,82.6,63.2,29.85,SSW,204,3.1,6.9,52,0.00,SCT,BKN,0.00,79.6,WeatherDisplay:10.37,2013-06-24 22:28:00,
2013-06-24 18:33:00,82.8,63.3,29.85,South,182,2.9,4.6,52,0.00,SCT,BKN,0.00,87.1,WeatherDisplay:10.37,2013-06-24 22:33:00,
2013-06-24 18:38:00,83.1,63.7,29.85,South,175,2.9,5.8,52,0.00,SCT,BKN,0.00,315.8,WeatherDisplay:10.37,2013-06-24 22:38:00,
2013-06-24 18:43:00,82.9,63.5,29.85,South,174,1.7,3.5,52,0.00,SCT,BKN,0.00,95.8,WeatherDisplay:10.37,2013-06-24 22:43:00,
2013-06-24 18:48:00,82.6,63.2,29.85,SSE,165,3.6,4.6,52,0.00,SCT,BKN,0.00,77.6,WeatherDisplay:10.37,2013-06-24 22:48:00,
2013-06-24 18:53:00,82.9,63.5,29.85,South,178,1.8,3.5,52,0.00,SCT,BKN,0.00,81.2,WeatherDisplay:10.37,2013-06-24 22:53:00,
2013-06-24 18:59:00,82.9,63.5,29.86,South,179,2.4,4.6,52,0.00,SCT,BKN,0.00,118.3,WeatherDisplay:10.37,2013-06-24 22:59:00,
2013-06-24 19:04:00,82.9,63.5,29.86,WNW,301,2.3,10.5,52,0.00,SCT,BKN,0.00,71.3,WeatherDisplay:10.37,2013-06-24 23:04:00,
2013-06-24 19:09:00,82.6,62.6,29.85,SW,218,5.2,6.9,51,0.00,SCT,BKN,0.00,63.4,WeatherDisplay:10.37,2013-06-24 23:09:00,
2013-06-24 19:15:00,82.4,62.5,29.87,South,184,3.1,4.6,51,0.00,SCT,BKN,0.00,68.6,WeatherDisplay:10.37,2013-06-24 23:15:00,
2013-06-24 19:20:00,82.6,62.6,29.87,South,191,1.4,3.5,51,0.00,SCT,BKN,0.00,49.1,WeatherDisplay:10.37,2013-06-24 23:20:00,
2013-06-24 19:25:00,82.0,62.1,29.86,South,187,2.9,4.8,51,0.00,SCT,BKN,0.00,64.5,WeatherDisplay:10.37,2013-06-24 23:25:00,
2013-06-24 19:31:00,82.0,62.1,29.86,SW,230,4.1,6.9,51,0.00,SCT,BKN,0.00,43.1,WeatherDisplay:10.37,2013-06-24 23:31:00,
2013-06-24 19:36:00,81.7,61.8,29.86,SSW,213,2.0,3.5,51,0.00,SCT,BKN,0.00,41.3,WeatherDisplay:10.37,2013-06-24 23:36:00,
2013-06-24 19:41:00,81.7,61.8,29.85,SW,215,3.2,6.9,51,0.00,SCT,BKN,0.00,35.7,WeatherDisplay:10.37,2013-06-24 23:41:00,
2013-06-24 19:46:00,81.5,62.2,29.85,South,177,2.8,6.9,52,0.00,SCT,BKN,0.00,33.3,WeatherDisplay:10.37,2013-06-24 23:46:00,
2013-06-24 19:51:00,81.7,62.3,29.86,SW,225,2.1,3.5,52,0.00,SCT,BKN,0.00,97.2,WeatherDisplay:10.37,2013-06-24 23:51:00,
2013-06-24 19:56:00,81.3,62.0,29.86,South,186,1.7,5.8,52,0.00,SCT,BKN,0.00,102.5,WeatherDisplay:10.37,2013-06-24 23:56:00,
2013-06-24 20:01:00,81.3,62.0,29.85,SSW,205,2.6,8.1,52,0.00,SCT,BKN,0.00,89.4,WeatherDisplay:10.37,2013-06-25 00:01:00,
2013-06-24 20:06:00,81.3,62.6,29.86,South,180,1.6,3.5,53,0.00,SCT,BKN,0.00,80.2,WeatherDisplay:10.37,2013-06-25 00:06:00,
2013-06-24 20:12:00,80.8,62.1,29.86,SSW,210,1.2,5.8,53,0.00,SCT,BKN,0.00,63.6,WeatherDisplay:10.37,2013-06-25 00:12:00,
2013-06-24 20:17:00,80.4,62.2,29.87,SW,231,1.3,2.3,54,0.00,SCT,BKN,0.00,46.8,WeatherDisplay:10.37,2013-06-25 00:17:00,
2013-06-24 20:22:00,80.6,62.4,29.86,South,176,0.6,2.3,54,0.00,SCT,BKN,0.00,29.6,WeatherDisplay:10.37,2013-06-25 00:22:00,
2013-06-24 20:27:00,80.1,61.9,29.87,South,184,1.4,5.8,54,0.00,SCT,BKN,0.00,11.0,WeatherDisplay:10.37,2013-06-25 00:27:00,
2013-06-24 20:32:00,79.9,62.3,29.87,West,278,1.2,3.5,55,0.00,SCT,BKN,0.00,7.8,WeatherDisplay:10.37,2013-06-25 00:32:00,
2013-06-24 20:37:00,79.5,62.4,29.87,SSE,168,3.7,5.8,56,0.00,SCT,BKN,0.00,7.3,WeatherDisplay:10.37,2013-06-25 00:37:00,
2013-06-24 20:43:00,79.3,62.3,29.87,South,169,2.5,6.9,56,0.00,SCT,BKN,0.00,2.0,WeatherDisplay:10.37,2013-06-25 00:43:00,
2013-06-24 20:48:00,79.5,62.9,29.87,SSW,206,1.9,4.5,57,0.00,SCT,BKN,0.00,1.8,WeatherDisplay:10.37,2013-06-25 00:48:00,
2013-06-24 20:53:00,79.0,62.4,29.86,SSW,194,2.0,9.2,57,0.00,SCT,BKN,0.00,0.5,WeatherDisplay:10.37,2013-06-25 00:53:00,
2013-06-24 20:59:00,78.6,62.6,29.86,SSW,195,3.1,5.8,58,0.00,SCT,BKN,0.00,0.0,WeatherDisplay:10.37,2013-06-25 00:59:00,
2013-06-24 21:04:00,78.4,62.9,29.86,South,181,3.3,5.8,59,0.00,SCT,BKN,0.00,0.0,WeatherDisplay:10.37,2013-06-25 01:04:00,
2013-06-24 21:09:00,78.1,62.6,29.86,SSW,201,4.3,4.3,59,0.00,SCT,BKN,0.00,0.0,WeatherDisplay:10.37,2013-06-25 01:09:00,
2013-06-24 21:14:00,77.9,62.9,29.86,SSW,209,3.4,8.1,60,0.00,SCT,BKN,0.00,0.0,WeatherDisplay:10.37,2013-06-25 01:14:00,
2013-06-24 21:19:00,78.1,63.1,29.87,South,179,1.7,6.9,60,0.00,SCT,BKN,0.00,0.0,WeatherDisplay:10.37,2013-06-25 01:19:00,
2013-06-24 21:24:00,77.7,62.7,29.86,South,173,2.1,4.6,60,0.00,SCT,BKN,0.00,0.0,WeatherDisplay:10.37,2013-06-25 01:24:00,
2013-06-24 21:29:00,77.7,62.7,29.87,South,187,1.9,3.5,60,0.00,SCT,BKN,0.00,0.0,WeatherDisplay:10.37,2013-06-25 01:29:00,
2013-06-24 21:35:00,77.5,62.6,29.87,SSW,194,2.2,4.6,60,0.00,SCT,BKN,0.00,0.0,WeatherDisplay:10.37,2013-06-25 01:35:00,
2013-06-24 21:40:00,77.4,62.4,29.87,SW,234,3.0,4.6,60,0.00,SCT,BKN,0.00,0.0,WeatherDisplay:10.37,2013-06-25 01:40:00,
2013-06-24 21:45:00,77.5,63.0,29.87,SSE,166,2.2,5.8,61,0.00,SCT,BKN,0.00,0.0,WeatherDisplay:10.37,2013-06-25 01:45:00,
2013-06-24 21:50:00,77.2,63.2,29.87,South,188,2.6,5.8,62,0.00,SCT,BKN,0.00,0.0,WeatherDisplay:10.37,2013-06-25 01:50:00,
2013-06-24 21:55:00,77.2,63.2,29.87,South,173,3.0,5.8,62,0.00,SCT,BKN,0.00,0.0,WeatherDisplay:10.37,2013-06-25 01:55:00,
2013-06-24 22:01:00,77.2,63.2,29.88,SSW,200,2.6,5.8,62,0.00,SCT,BKN,0.00,0.0,WeatherDisplay:10.37,2013-06-25 02:01:00,
2013-06-24 22:06:00,77.2,63.2,29.88,South,187,2.3,6.9,62,0.00,SCT,BKN,0.00,0.0,WeatherDisplay:10.37,2013-06-25 02:06:00,
2013-06-24 22:11:00,77.0,63.4,29.88,South,182,1.3,3.5,63,0.00,SCT,BKN,0.00,0.0,WeatherDisplay:10.37,2013-06-25 02:11:00,
2013-06-24 22:16:00,77.0,63.4,29.88,South,182,0.8,4.6,63,0.00,SCT,BKN,0.00,0.0,WeatherDisplay:10.37,2013-06-25 02:16:00,
2013-06-24 22:21:00,76.8,63.7,29.88,South,189,1.8,3.5,64,0.00,SCT,BKN,0.00,0.0,WeatherDisplay:10.37,2013-06-25 02:21:00,
2013-06-24 22:27:00,76.6,63.5,29.88,SW,230,2.1,4.6,64,0.00,SCT,BKN,0.00,0.0,WeatherDisplay:10.37,2013-06-25 02:27:00,
2013-06-24 22:32:00,76.6,63.5,29.88,SE,143,1.4,4.6,64,0.00,SCT,BKN,0.00,0.0,WeatherDisplay:10.37,2013-06-25 02:32:00,
2013-06-24 22:37:00,76.6,63.5,29.88,South,186,1.8,3.5,64,0.00,SCT,BKN,0.00,0.0,WeatherDisplay:10.37,2013-06-25 02:37:00,
2013-06-24 22:43:00,76.5,63.4,29.88,SSW,200,2.8,6.9,64,0.00,SCT,BKN,0.00,0.0,WeatherDisplay:10.37,2013-06-25 02:43:00,
2013-06-24 22:48:00,76.6,63.5,29.88,South,180,1.0,3.5,64,0.00,SCT,BKN,0.00,0.0,WeatherDisplay:10.37,2013-06-25 02:48:00,
2013-06-24 22:53:00,76.3,63.6,29.88,South,178,2.5,6.9,65,0.00,SCT,BKN,0.00,0.0,WeatherDisplay:10.37,2013-06-25 02:53:00,
2013-06-24 22:59:00,76.3,63.6,29.88,South,183,3.3,6.9,65,0.00,SCT,BKN,0.00,0.0,WeatherDisplay:10.37,2013-06-25 02:59:00,
2013-06-24 23:04:00,76.3,63.6,29.88,SSW,194,2.0,4.6,65,0.00,SCT,BKN,0.00,0.0,WeatherDisplay:10.37,2013-06-25 03:04:00,
2013-06-24 23:09:00,75.7,63.6,29.88,South,170,3.5,4.6,66,0.00,SCT,BKN,0.00,0.0,WeatherDisplay:10.37,2013-06-25 03:09:00,
2013-06-24 23:15:00,75.9,63.7,29.87,SSW,193,1.2,2.3,66,0.00,SCT,BKN,0.00,0.0,WeatherDisplay:10.37,2013-06-25 03:15:00,
2013-06-24 23:21:00,75.7,64.0,29.87,South,191,3.3,6.9,67,0.00,SCT,BKN,0.00,0.0,WeatherDisplay:10.37,2013-06-25 03:21:00,
2013-06-24 23:26:00,75.7,64.0,29.87,South,184,1.5,4.6,67,0.00,SCT,BKN,0.00,0.0,WeatherDisplay:10.37,2013-06-25 03:26:00,
2013-06-24 23:32:00,75.6,63.8,29.87,South,179,2.4,5.8,67,0.00,SCT,BKN,0.00,0.0,WeatherDisplay:10.37,2013-06-25 03:32:00,
2013-06-24 23:37:00,75.6,63.8,29.87,South,171,1.6,3.5,67,0.00,SCT,BKN,0.00,0.0,WeatherDisplay:10.37,2013-06-25 03:37:00,
2013-06-24 23:43:00,75.4,64.1,29.87,SSE,153,2.0,4.6,68,0.00,SCT,BKN,0.00,0.0,WeatherDisplay:10.37,2013-06-25 03:43:00,
2013-06-24 23:48:00,75.4,64.1,29.86,South,182,0.9,3.5,68,0.00,SCT,BKN,0.00,0.0,WeatherDisplay:10.37,2013-06-25 03:48:00,
2013-06-24 23:54:00,75.2,63.9,29.87,SSW,200,0.9,3.5,68,0.00,SCT,BKN,0.00,0.0,WeatherDisplay:10.37,2013-06-25 03:54:00,
2013-06-24 23:59:00,75.2,63.9,29.86,SSW,208,1.3,3.5,68,0.00,SCT,BKN,0.00,0.0,WeatherDisplay:10.37,2013-06-25 03:59:00,